Tayabas, Philippines

3:02 PM PHT on July 30, 2015 (GMT +0800)
Masalukot II Candelaria | | Change Station
CLOSE
Current Station
Personal Weather Station
Location: Candelaria, CALABARZON
Elevation: 295 ft
Nearby Weather Stations

Elev 295 ft 13.94 °N, 121.42 °E | Updated 14 minutes ago

Overcast
Overcast
88.8 °F
Feels Like 103 °F
N
0.0
Wind Variable Wind from WNW
Gusts 4.0 mph

Today
High -- | Low -- °F
--% Chance of Precip.
Yesterday
High -- | Low -- °F
Precip. -- in
5:37 AM 6:22 PM
Waxing Gibbous, 98% visible
Pressure 29.80 in
Visibility 5.6 miles
Clouds Few 2200 ft
Scattered Clouds 2300 ft
Overcast 10000 ft
Heat Index 103 °F
Dew Point 78 °F
Humidity 71%
Rainfall 0.00 in
Snow Depth Not available.
UV 4 out of 12
Pollen Not available.
Air Quality Not available.
Flu Activity Not available.
METAR RPLL 300600Z 20007KT 9000 -RA FEW022CB SCT023 OVC100 28/24 Q1009 TEMPO 8000 -TSRA RMK A2980 CB W E

More Conditions Fewer Conditions

Pressure 29.80 in
Visibility 5.6 miles
Clouds Few 2200 ft
Scattered Clouds 2300 ft
Overcast 10000 ft
Heat Index 103 °F
Dew Point 78 °F
Humidity 71%
Rainfall 0.00 in
Snow Depth Not available.
UV 4 out of 12
Pollen Not available.
Air Quality Not available.
Flu Activity Not available.
METAR RPLL 300600Z 20007KT 9000 -RA FEW022CB SCT023 OVC100 28/24 Q1009 TEMPO 8000 -TSRA RMK A2980 CB W E

More Conditions Fewer Conditions

10-Day Weather Forecast

×

Almanac

Astronomy

Jul. 30, 2015 Rise Set
Actual Time
Civil Twilight
Nautical Twilight
Astronomical Twilight
Moon
Length of Visible Light
Length of Day
Tomorrow will be .
, % of the Moon is Illuminated

Today's Extremes

Country Highs Country Lows

Community

WunderPhotos

Upload Photos

1,842,312 photos uploaded!

WunderBlogs® & News

Nearby

Air Quality

  Air Quality AQ Index Pollutant
Not available.

Snow Depth

Station Depth Elevation

Earthquake Activity

City Distance Mag. Time & Date
Minimum magnitude displayed is 2.5.

Coastal Water Temperatures

Place Temperature

Stations

Nearby Weather Stations

Station Location Temp. Windchill Dew Point Humidity Wind Precip. Elev Updated Type